createdAt,value
2022-09-30T00:02:51.725Z,998.79
2022-09-30T00:08:02.773Z,998.89
2022-09-30T00:13:13.931Z,998.97
2022-09-30T00:18:25.088Z,998.92
2022-09-30T00:23:36.304Z,998.97
2022-09-30T00:28:47.451Z,999.04
2022-09-30T00:33:56.725Z,999.09
2022-09-30T00:39:00.873Z,999.08
2022-09-30T00:44:05.093Z,999.07
2022-09-30T00:49:09.241Z,998.95
2022-09-30T00:54:13.418Z,999.01
2022-09-30T00:59:17.583Z,999.03
2022-09-30T01:04:21.773Z,999.07
2022-09-30T01:09:26.011Z,999.06
2022-09-30T01:14:30.039Z,999.13
2022-09-30T01:19:34.203Z,999.03
2022-09-30T01:24:38.392Z,999.09
2022-09-30T01:29:42.547Z,999.13
2022-09-30T01:34:46.691Z,999.26
2022-09-30T01:39:50.884Z,999.28
2022-09-30T01:44:55.084Z,999.26
2022-09-30T01:49:59.239Z,999.23
2022-09-30T01:55:03.357Z,999.26
2022-09-30T02:00:07.563Z,999.25
2022-09-30T02:05:11.725Z,999.21
2022-09-30T02:10:15.864Z,999.23
2022-09-30T02:15:19.984Z,999.30
2022-09-30T02:20:22.309Z,999.35
2022-09-30T02:25:26.621Z,999.28
2022-09-30T02:30:28.718Z,999.19
2022-09-30T02:35:32.883Z,999.26
2022-09-30T02:40:37.145Z,999.20
2022-09-30T02:45:41.216Z,999.34
2022-09-30T02:50:45.426Z,999.32
2022-09-30T02:55:49.545Z,999.36
2022-09-30T03:00:53.780Z,999.40
2022-09-30T03:05:57.906Z,999.41
2022-09-30T03:11:02.024Z,999.42
2022-09-30T03:16:06.225Z,999.49
2022-09-30T03:21:10.372Z,999.45
2022-09-30T03:26:14.543Z,999.52
2022-09-30T03:31:18.774Z,999.63
2022-09-30T03:36:22.850Z,999.58
2022-09-30T03:41:27.043Z,999.53
2022-09-30T03:46:31.242Z,999.66
2022-09-30T03:51:35.353Z,999.73
2022-09-30T03:56:39.511Z,999.71
2022-09-30T04:01:43.709Z,999.76
2022-09-30T04:06:47.835Z,999.89
2022-09-30T04:11:52.024Z,999.91
2022-09-30T04:16:54.281Z,999.97
2022-09-30T04:21:58.447Z,1000.00
2022-09-30T04:27:02.642Z,1000.10
2022-09-30T04:32:06.805Z,1000.12
2022-09-30T04:37:11.275Z,1000.33
2022-09-30T04:42:15.105Z,1000.24
2022-09-30T04:47:19.296Z,1000.29
2022-09-30T04:52:23.430Z,1000.43
2022-09-30T04:57:27.575Z,1000.40
2022-09-30T05:02:31.783Z,1000.45
2022-09-30T05:07:35.961Z,1000.39
2022-09-30T05:12:40.253Z,1000.42
2022-09-30T05:17:44.242Z,1000.37
2022-09-30T05:22:48.447Z,1000.47
2022-09-30T05:27:52.647Z,1000.45
2022-09-30T05:32:56.777Z,1000.57
2022-09-30T05:38:00.937Z,1000.58
2022-09-30T05:43:05.064Z,1000.48
2022-09-30T05:48:09.271Z,1000.59
2022-09-30T05:53:13.431Z,1000.65
2022-09-30T05:58:17.594Z,1000.82
2022-09-30T06:03:19.877Z,1000.90
2022-09-30T06:08:24.029Z,1000.95
2022-09-30T06:13:26.273Z,1000.90
2022-09-30T06:18:30.470Z,1000.91
2022-09-30T06:23:34.615Z,1000.96
2022-09-30T06:28:38.813Z,1001.04
2022-09-30T06:33:42.937Z,1001.08
2022-09-30T06:38:47.111Z,1001.18
2022-09-30T06:44:09.409Z,1001.21
2022-09-30T06:49:04.970Z,1001.23
2022-09-30T06:53:59.637Z,1001.28
2022-09-30T06:59:03.756Z,1001.34
2022-09-30T07:04:07.916Z,1001.29
2022-09-30T07:09:12.203Z,1001.37
2022-09-30T07:14:16.281Z,1001.35
2022-09-30T07:19:20.409Z,1001.50
2022-09-30T07:24:24.576Z,1001.57
2022-09-30T07:29:36.650Z,1001.57
2022-09-30T07:34:32.905Z,1001.46
2022-09-30T07:39:37.070Z,1001.50
2022-09-30T07:44:41.207Z,1001.55
2022-09-30T07:49:45.418Z,1001.61
2022-09-30T07:54:50.723Z,1001.63
2022-09-30T07:59:51.844Z,1001.64
2022-09-30T08:04:56.001Z,1001.65
2022-09-30T08:09:58.378Z,1001.68
2022-09-30T08:15:02.445Z,1001.72
2022-09-30T08:20:13.083Z,1001.73
2022-09-30T08:25:10.807Z,1001.64
2022-09-30T08:30:14.911Z,1001.66
2022-09-30T08:35:19.091Z,1001.63
2022-09-30T08:40:23.209Z,1001.67
2022-09-30T08:45:27.461Z,1001.70
2022-09-30T08:50:31.559Z,1001.59
2022-09-30T08:55:35.716Z,1001.64
2022-09-30T09:00:40.060Z,1001.68
2022-09-30T09:05:47.309Z,1001.71
2022-09-30T09:10:48.209Z,1001.70
2022-09-30T09:15:52.381Z,1001.71
2022-09-30T09:20:56.553Z,1001.58
2022-09-30T09:26:00.723Z,1001.69
2022-09-30T09:31:04.853Z,1001.67
2022-09-30T09:36:09.141Z,1001.72
2022-09-30T09:41:13.202Z,1001.69
2022-09-30T09:46:17.489Z,1001.41
2022-09-30T09:51:21.481Z,1001.33
2022-09-30T09:56:26.324Z,1001.33
2022-09-30T10:01:27.978Z,1001.20
2022-09-30T10:06:32.111Z,1001.36
2022-09-30T10:11:34.372Z,1001.30
2022-09-30T10:16:38.544Z,1001.34
2022-09-30T10:21:42.704Z,1001.44
2022-09-30T10:26:48.887Z,1001.42
2022-09-30T10:31:51.040Z,1001.36
2022-09-30T10:36:55.194Z,1001.32
2022-09-30T10:41:59.347Z,1001.32
2022-09-30T10:47:03.598Z,1001.23
2022-09-30T10:52:07.649Z,1001.18
2022-09-30T10:57:11.805Z,1001.23
2022-09-30T11:02:16.014Z,1001.18
2022-09-30T11:07:20.171Z,1001.24
2022-09-30T11:12:24.298Z,1001.21
2022-09-30T11:17:28.421Z,1001.30
2022-09-30T11:22:32.625Z,1001.36
2022-09-30T11:27:36.800Z,1001.43
2022-09-30T11:37:45.115Z,1001.47
2022-09-30T11:42:49.276Z,1001.46
2022-09-30T11:47:53.488Z,1001.31
2022-09-30T11:52:57.587Z,1001.44
2022-09-30T11:58:12.064Z,1001.40
2022-09-30T12:03:07.904Z,1001.38
2022-09-30T12:08:08.143Z,1001.30
2022-09-30T12:13:12.365Z,1001.30
2022-09-30T12:18:14.604Z,1001.19
2022-09-30T12:23:18.732Z,1001.22
2022-09-30T12:28:22.979Z,1001.18
2022-09-30T12:33:27.109Z,1001.09
2022-09-30T12:38:31.224Z,1000.96
2022-09-30T12:43:35.392Z,1000.83
2022-09-30T12:48:39.554Z,1000.86
2022-09-30T12:53:43.801Z,1000.75
2022-09-30T12:58:47.847Z,1000.75
2022-09-30T13:03:52.003Z,1000.73
2022-09-30T13:08:56.213Z,1000.64
2022-09-30T13:14:00.443Z,1000.45
2022-09-30T13:19:04.512Z,1000.49
2022-09-30T13:24:08.646Z,1000.58
2022-09-30T13:29:12.932Z,1000.45
2022-09-30T13:34:17.036Z,1000.35
2022-09-30T13:39:21.148Z,1000.37
2022-09-30T13:44:25.286Z,1000.46
2022-09-30T13:49:29.469Z,1000.35
2022-09-30T13:54:33.623Z,1000.40
2022-09-30T13:59:37.780Z,1000.41
2022-09-30T14:04:40.075Z,1000.36
2022-09-30T14:09:44.243Z,1000.31
2022-09-30T14:14:46.538Z,1000.37
2022-09-30T14:19:50.625Z,1000.22
2022-09-30T14:24:54.778Z,1000.22
2022-09-30T14:29:58.955Z,1000.14
2022-09-30T14:35:03.114Z,1000.05
2022-09-30T14:40:07.253Z,1000.02
2022-09-30T14:45:11.435Z,1000.05
2022-09-30T14:50:15.583Z,999.97
2022-09-30T14:55:19.762Z,1000.02
2022-09-30T15:00:24.007Z,999.95
2022-09-30T15:05:28.066Z,999.91
2022-09-30T15:10:32.231Z,999.94
2022-09-30T15:15:36.394Z,999.90
2022-09-30T15:20:40.575Z,999.86
2022-09-30T15:25:44.728Z,999.81
2022-09-30T15:30:48.891Z,999.95
2022-09-30T15:35:56.590Z,999.81
2022-09-30T15:40:57.197Z,999.76
2022-09-30T15:46:01.441Z,999.81
2022-09-30T15:51:05.500Z,999.82
2022-09-30T15:56:09.696Z,999.76
2022-09-30T16:01:12.005Z,999.77
2022-09-30T16:06:16.086Z,999.76
2022-09-30T16:11:18.377Z,999.76
2022-09-30T16:16:22.619Z,999.77
2022-09-30T16:21:26.705Z,999.78
2022-09-30T16:26:31.164Z,999.82
2022-09-30T16:31:35.070Z,999.89
2022-09-30T16:36:39.190Z,999.94
2022-09-30T16:41:43.353Z,999.96
2022-09-30T16:46:47.487Z,999.83
2022-09-30T16:51:51.646Z,999.88
2022-09-30T16:56:57.697Z,999.91
2022-09-30T17:02:00.004Z,999.85
2022-09-30T17:07:04.145Z,999.84
2022-09-30T17:12:08.295Z,999.83
2022-09-30T17:17:13.436Z,999.69
2022-09-30T17:22:16.642Z,999.74
2022-09-30T17:27:20.775Z,999.73
2022-09-30T17:32:24.962Z,999.80
2022-09-30T17:37:29.085Z,999.86
2022-09-30T17:42:33.246Z,999.85
2022-09-30T17:47:37.386Z,999.85
2022-09-30T17:52:41.575Z,999.79
2022-09-30T17:57:43.867Z,999.63
2022-09-30T18:02:48.120Z,999.64
2022-09-30T18:07:52.163Z,999.70
2022-09-30T18:12:54.456Z,999.69
2022-09-30T18:17:58.597Z,999.69
2022-09-30T18:23:02.797Z,999.56
2022-09-30T18:28:06.947Z,999.45
2022-09-30T18:33:11.067Z,999.59
2022-09-30T18:38:15.329Z,999.65
2022-09-30T18:43:19.481Z,999.69
2022-09-30T18:48:23.552Z,999.69
2022-09-30T18:53:27.727Z,999.66
2022-09-30T18:58:31.899Z,999.69
2022-09-30T19:03:36.041Z,999.79
2022-09-30T19:08:40.238Z,999.70
2022-09-30T19:13:44.391Z,999.65
2022-09-30T19:18:48.538Z,999.66
2022-09-30T19:23:52.696Z,999.57
2022-09-30T19:28:56.879Z,999.51
2022-09-30T19:34:01.028Z,999.44
2022-09-30T19:39:10.576Z,999.33
2022-09-30T19:44:09.360Z,999.29
2022-09-30T19:49:13.489Z,999.29
2022-09-30T19:54:17.705Z,999.36
2022-09-30T19:59:19.958Z,999.28
2022-09-30T20:04:24.086Z,999.24
2022-09-30T20:09:28.262Z,999.21
2022-09-30T20:14:32.412Z,999.25
2022-09-30T20:19:36.594Z,999.28
2022-09-30T20:24:40.750Z,999.25
2022-09-30T20:29:44.907Z,999.27
2022-09-30T20:34:49.034Z,999.19
2022-09-30T20:39:53.236Z,999.22
2022-09-30T20:44:57.376Z,999.16
2022-09-30T20:50:01.547Z,998.99
2022-09-30T20:55:05.678Z,998.87
2022-09-30T21:00:09.844Z,998.80
2022-09-30T21:05:13.994Z,998.79
2022-09-30T21:10:18.186Z,998.72
2022-09-30T21:15:22.361Z,998.68
2022-09-30T21:20:26.498Z,998.63
2022-09-30T21:25:30.653Z,998.60
2022-09-30T21:30:34.797Z,998.44
2022-09-30T21:35:38.984Z,998.44
2022-09-30T21:40:43.148Z,998.35
2022-09-30T21:45:45.458Z,998.38
2022-09-30T21:50:49.556Z,998.27
2022-09-30T21:55:53.723Z,998.32
2022-09-30T22:00:57.981Z,998.27
2022-09-30T22:06:02.018Z,998.25
2022-09-30T22:11:06.253Z,998.13
2022-09-30T22:16:11.184Z,998.23
2022-09-30T22:21:14.689Z,998.16
2022-09-30T22:26:18.929Z,998.13
2022-09-30T22:31:22.914Z,998.12
2022-09-30T22:36:27.054Z,998.02
2022-09-30T22:41:31.550Z,997.88
2022-09-30T22:46:35.330Z,997.82
2022-09-30T22:51:37.616Z,997.73
2022-09-30T22:56:41.759Z,997.68
2022-09-30T23:01:44.031Z,997.72
2022-09-30T23:06:48.196Z,997.67
2022-09-30T23:11:50.552Z,997.57
2022-09-30T23:21:58.789Z,997.38
2022-09-30T23:27:02.925Z,997.27
2022-09-30T23:32:07.183Z,997.20
2022-09-30T23:37:11.269Z,997.19
2022-09-30T23:42:15.424Z,997.03
2022-09-30T23:47:19.601Z,996.99
2022-09-30T23:52:23.729Z,996.83
2022-09-30T23:57:27.926Z,996.71
